Time,TemperatureF,DewpointF,PressureIn,WindDirection,WindDirectionDegrees,WindSpeedMPH,WindSpeedGustMPH,Humidity,HourlyPrecipIn,Conditions,Clouds,dailyrainin,SoftwareType,DateUTC
2013-05-19 00:01:00,61.7,58.5,29.61,NE,45,3.4,5.1,89,0.00,,,0.00,WUHU216HW,2013-05-19 04:01:00,
2013-05-19 00:06:00,61.7,58.5,29.61,NNE,23,6.0,6.0,89,0.00,,,0.00,WUHU216HW,2013-05-19 04:06:00,
2013-05-19 00:11:00,61.6,58.3,29.61,NNW,338,1.6,6.0,89,0.00,,,0.00,WUHU216HW,2013-05-19 04:11:00,
2013-05-19 00:16:00,61.7,58.5,29.61,NNE,23,0.9,6.0,89,0.00,,,0.00,WUHU216HW,2013-05-19 04:16:00,
2013-05-19 00:21:00,61.6,58.1,29.60,North,0,0.2,1.8,88,0.00,,,0.00,WUHU216HW,2013-05-19 04:21:00,
2013-05-19 00:26:00,61.6,58.3,29.60,NNW,338,0.2,0.9,89,0.00,,,0.00,WUHU216HW,2013-05-19 04:26:00,
2013-05-19 00:31:00,61.6,58.1,29.60,NW,315,0.4,0.4,88,0.00,,,0.00,WUHU216HW,2013-05-19 04:31:00,
2013-05-19 00:36:00,61.6,58.1,29.60,North,0,0.0,1.1,88,0.00,,,0.00,WUHU216HW,2013-05-19 04:36:00,
2013-05-19 00:41:00,61.6,58.1,29.60,NW,315,0.4,1.1,88,0.00,,,0.00,WUHU216HW,2013-05-19 04:41:00,
2013-05-19 00:46:00,61.6,58.1,29.60,NW,315,0.0,0.4,88,0.00,,,0.00,WUHU216HW,2013-05-19 04:46:00,
2013-05-19 00:51:00,61.6,58.1,29.60,NW,315,0.0,0.4,88,0.00,,,0.00,WUHU216HW,2013-05-19 04:51:00,
2013-05-19 00:56:00,61.6,58.1,29.59,NNE,23,0.0,0.0,88,0.00,,,0.00,WUHU216HW,2013-05-19 04:56:00,
2013-05-19 01:01:00,61.6,58.1,29.59,North,0,0.0,0.0,88,0.00,,,0.00,WUHU216HW,2013-05-19 05:01:00,
2013-05-19 01:06:00,61.6,58.1,29.59,North,0,0.0,0.0,88,0.00,,,0.00,WUHU216HW,2013-05-19 05:06:00,
2013-05-19 01:11:00,61.4,57.9,29.59,North,0,0.0,0.0,88,0.00,,,0.00,WUHU216HW,2013-05-19 05:11:00,
2013-05-19 01:16:00,61.6,58.1,29.60,North,0,0.0,0.0,88,0.00,,,0.00,WUHU216HW,2013-05-19 05:16:00,
2013-05-19 01:21:00,61.6,58.1,29.59,North,0,1.3,1.3,88,0.00,,,0.00,WUHU216HW,2013-05-19 05:21:00,
2013-05-19 01:26:00,61.6,58.3,29.59,NNE,23,3.8,4.0,89,0.00,,,0.00,WUHU216HW,2013-05-19 05:26:00,
2013-05-19 01:31:00,61.4,58.1,29.59,NE,45,1.8,4.0,89,0.00,,,0.00,WUHU216HW,2013-05-19 05:31:00,
2013-05-19 01:36:00,61.4,58.1,29.59,North,0,1.6,3.8,89,0.00,,,0.00,WUHU216HW,2013-05-19 05:36:00,
2013-05-19 01:41:00,61.4,58.1,29.59,NNE,23,3.8,3.8,89,0.00,,,0.00,WUHU216HW,2013-05-19 05:41:00,
2013-05-19 01:46:00,61.2,58.0,29.59,NNW,338,0.2,3.8,89,0.00,,,0.00,WUHU216HW,2013-05-19 05:46:00,
2013-05-19 01:51:00,61.2,58.0,29.59,NNW,338,0.7,3.8,89,0.00,,,0.00,WUHU216HW,2013-05-19 05:51:00,
2013-05-19 01:56:00,61.2,58.3,29.59,NNW,338,0.7,0.7,90,0.00,,,0.00,WUHU216HW,2013-05-19 05:56:00,
2013-05-19 02:01:00,61.2,58.3,29.59,NNW,338,1.3,1.3,90,0.00,,,0.00,WUHU216HW,2013-05-19 06:01:00,
2013-05-19 02:06:00,61.2,58.3,29.59,NW,315,0.2,1.3,90,0.00,,,0.00,WUHU216HW,2013-05-19 06:06:00,
2013-05-19 02:11:00,61.2,58.3,29.59,North,0,0.4,1.3,90,0.00,,,0.00,WUHU216HW,2013-05-19 06:11:00,
2013-05-19 02:16:00,61.2,58.0,29.59,North,0,2.9,2.9,89,0.00,,,0.00,WUHU216HW,2013-05-19 06:16:00,
2013-05-19 02:21:00,61.2,58.0,29.59,North,0,0.9,2.9,89,0.00,,,0.00,WUHU216HW,2013-05-19 06:21:00,
2013-05-19 02:26:00,61.2,58.3,29.59,North,0,0.9,2.9,90,0.00,,,0.00,WUHU216HW,2013-05-19 06:26:00,
2013-05-19 02:31:00,61.2,58.3,29.59,North,0,3.1,3.1,90,0.00,,,0.00,WUHU216HW,2013-05-19 06:31:00,
2013-05-19 02:36:00,61.2,58.3,29.59,NNW,338,0.7,3.1,90,0.00,,,0.00,WUHU216HW,2013-05-19 06:36:00,
2013-05-19 02:41:00,61.0,58.1,29.58,NNW,338,0.7,3.1,90,0.00,,,0.00,WUHU216HW,2013-05-19 06:41:00,
2013-05-19 02:46:00,61.0,58.1,29.58,NNW,338,0.9,0.9,90,0.00,,,0.00,WUHU216HW,2013-05-19 06:46:00,
2013-05-19 02:51:00,61.0,58.1,29.58,NNW,338,0.0,0.9,90,0.00,,,0.00,WUHU216HW,2013-05-19 06:51:00,
2013-05-19 02:56:00,61.0,58.1,29.58,NNW,338,0.2,0.9,90,0.00,,,0.00,WUHU216HW,2013-05-19 06:56:00,
2013-05-19 03:01:00,60.8,58.0,29.58,NNW,338,1.1,1.1,90,0.00,,,0.00,WUHU216HW,2013-05-19 07:01:00,
2013-05-19 03:06:00,60.8,58.0,29.58,North,0,1.1,1.1,90,0.00,,,0.00,WUHU216HW,2013-05-19 07:06:00,
2013-05-19 03:11:00,60.7,57.8,29.58,NNE,23,0.9,1.1,90,0.00,,,0.00,WUHU216HW,2013-05-19 07:11:00,
2013-05-19 03:16:00,60.7,57.8,29.58,NNW,338,1.1,1.1,90,0.00,,,0.00,WUHU216HW,2013-05-19 07:16:00,
2013-05-19 03:21:00,60.5,57.6,29.57,NNW,338,0.4,1.1,90,0.00,,,0.00,WUHU216HW,2013-05-19 07:21:00,
2013-05-19 03:26:00,60.5,57.6,29.57,NNW,338,0.7,1.1,90,0.00,,,0.00,WUHU216HW,2013-05-19 07:26:00,
2013-05-19 03:31:00,60.5,57.6,29.57,NNW,338,0.2,0.9,90,0.00,,,0.00,WUHU216HW,2013-05-19 07:31:00,
2013-05-19 03:36:00,60.5,57.6,29.57,North,0,0.0,0.7,90,0.00,,,0.00,WUHU216HW,2013-05-19 07:36:00,
2013-05-19 03:41:00,60.5,57.6,29.57,North,0,1.1,1.1,90,0.00,,,0.00,WUHU216HW,2013-05-19 07:41:00,
2013-05-19 03:46:00,60.3,57.4,29.57,NNE,23,0.9,1.6,90,0.00,,,0.00,WUHU216HW,2013-05-19 07:46:00,
2013-05-19 03:51:00,60.1,57.2,29.56,North,0,0.0,1.6,90,0.00,,,0.00,WUHU216HW,2013-05-19 07:51:00,
2013-05-19 03:56:00,60.1,57.5,29.56,North,0,0.4,0.9,91,0.00,,,0.00,WUHU216HW,2013-05-19 07:56:00,
2013-05-19 04:01:00,60.1,57.5,29.56,North,0,0.0,0.7,91,0.00,,,0.00,WUHU216HW,2013-05-19 08:01:00,
2013-05-19 04:06:00,60.1,57.5,29.56,NNW,338,0.0,0.4,91,0.00,,,0.00,WUHU216HW,2013-05-19 08:06:00,
2013-05-19 04:11:00,60.1,57.5,29.56,North,0,0.0,0.2,91,0.00,,,0.00,WUHU216HW,2013-05-19 08:11:00,
2013-05-19 04:16:00,60.1,57.5,29.56,North,0,0.0,0.2,91,0.00,,,0.00,WUHU216HW,2013-05-19 08:16:00,
2013-05-19 04:21:00,60.1,57.5,29.57,North,0,0.0,0.0,91,0.00,,,0.00,WUHU216HW,2013-05-19 08:21:00,
2013-05-19 04:26:00,60.1,57.2,29.57,North,0,0.0,0.0,90,0.00,,,0.00,WUHU216HW,2013-05-19 08:26:00,
2013-05-19 04:31:00,60.1,57.2,29.57,NW,315,0.2,0.4,90,0.00,,,0.00,WUHU216HW,2013-05-19 08:31:00,
2013-05-19 04:36:00,60.1,57.5,29.57,North,0,2.0,2.0,91,0.00,,,0.00,WUHU216HW,2013-05-19 08:36:00,
2013-05-19 04:41:00,60.1,57.5,29.57,North,0,0.4,2.0,91,0.00,,,0.00,WUHU216HW,2013-05-19 08:41:00,
2013-05-19 04:46:00,60.1,57.5,29.57,NNW,338,0.0,2.0,91,0.00,,,0.00,WUHU216HW,2013-05-19 08:46:00,
2013-05-19 04:51:00,60.1,57.5,29.57,NNE,23,1.6,1.6,91,0.00,,,0.00,WUHU216HW,2013-05-19 08:51:00,
2013-05-19 04:56:00,60.1,57.5,29.57,NNE,23,1.1,1.6,91,0.00,,,0.00,WUHU216HW,2013-05-19 08:56:00,
2013-05-19 05:01:00,60.1,57.5,29.57,North,0,0.0,1.6,91,0.00,,,0.00,WUHU216HW,2013-05-19 09:01:00,
2013-05-19 05:06:00,60.1,57.5,29.57,North,0,0.2,1.1,91,0.00,,,0.00,WUHU216HW,2013-05-19 09:06:00,
2013-05-19 05:11:00,60.1,57.5,29.57,NNW,338,0.0,0.2,91,0.00,,,0.00,WUHU216HW,2013-05-19 09:11:00,
2013-05-19 05:16:00,60.1,57.5,29.56,NNW,338,0.4,0.9,91,0.00,,,0.00,WUHU216HW,2013-05-19 09:16:00,
2013-05-19 05:21:00,60.1,57.5,29.56,NNW,338,0.0,0.9,91,0.00,,,0.00,WUHU216HW,2013-05-19 09:21:00,
2013-05-19 05:26:00,60.1,57.2,29.56,North,0,0.9,0.9,90,0.00,,,0.00,WUHU216HW,2013-05-19 09:26:00,
2013-05-19 05:31:00,60.1,57.5,29.57,NNW,338,0.4,0.9,91,0.00,,,0.00,WUHU216HW,2013-05-19 09:31:00,
2013-05-19 05:36:00,60.1,57.5,29.57,North,0,0.2,0.9,91,0.00,,,0.00,WUHU216HW,2013-05-19 09:36:00,
2013-05-19 05:41:00,60.1,57.5,29.57,NNE,23,1.1,4.0,91,0.00,,,0.00,WUHU216HW,2013-05-19 09:41:00,
2013-05-19 05:46:00,59.9,57.3,29.57,North,0,0.0,4.0,91,0.00,,,0.00,WUHU216HW,2013-05-19 09:46:00,
2013-05-19 05:51:00,60.1,57.5,29.57,North,0,0.7,1.1,91,0.00,,,0.00,WUHU216HW,2013-05-19 09:51:00,
2013-05-19 05:56:00,59.9,57.3,29.58,NNW,338,0.0,0.7,91,0.00,,,0.00,WUHU216HW,2013-05-19 09:56:00,
2013-05-19 06:01:00,59.9,57.3,29.57,North,0,0.4,0.7,91,0.00,,,0.00,WUHU216HW,2013-05-19 10:01:00,
2013-05-19 06:06:00,59.9,57.3,29.58,North,0,0.9,0.9,91,0.00,,,0.00,WUHU216HW,2013-05-19 10:06:00,
2013-05-19 06:11:00,59.9,57.3,29.58,North,0,0.7,0.9,91,0.00,,,0.00,WUHU216HW,2013-05-19 10:11:00,
2013-05-19 06:16:00,59.9,57.6,29.58,NNW,338,1.1,1.1,92,0.00,,,0.00,WUHU216HW,2013-05-19 10:16:00,
2013-05-19 06:21:00,59.9,57.3,29.58,NE,45,4.0,4.0,91,0.00,,,0.00,WUHU216HW,2013-05-19 10:21:00,
2013-05-19 06:26:00,60.1,57.8,29.58,NNW,338,0.2,4.0,92,0.00,,,0.00,WUHU216HW,2013-05-19 10:26:00,
2013-05-19 06:31:00,60.1,57.5,29.58,North,0,0.7,4.0,91,0.00,,,0.00,WUHU216HW,2013-05-19 10:31:00,
2013-05-19 06:36:00,60.1,57.5,29.58,NW,315,2.2,2.2,91,0.00,,,0.00,WUHU216HW,2013-05-19 10:36:00,
2013-05-19 06:41:00,60.1,57.5,29.58,North,0,1.8,2.2,91,0.00,,,0.00,WUHU216HW,2013-05-19 10:41:00,
2013-05-19 06:46:00,60.1,57.5,29.58,North,0,0.4,2.2,91,0.00,,,0.00,WUHU216HW,2013-05-19 10:46:00,
2013-05-19 06:51:00,60.1,57.5,29.58,North,0,2.2,2.2,91,0.00,,,0.00,WUHU216HW,2013-05-19 10:51:00,
2013-05-19 06:56:00,60.1,57.5,29.59,North,0,0.2,2.2,91,0.00,,,0.00,WUHU216HW,2013-05-19 10:56:00,
2013-05-19 07:01:00,60.3,57.7,29.58,North,0,0.4,2.2,91,0.00,,,0.00,WUHU216HW,2013-05-19 11:01:00,
2013-05-19 07:06:00,60.5,57.9,29.58,NNW,338,0.2,0.4,91,0.00,,,0.00,WUHU216HW,2013-05-19 11:06:00,
2013-05-19 07:11:00,60.7,58.1,29.59,NNW,338,0.4,0.4,91,0.00,,,0.00,WUHU216HW,2013-05-19 11:11:00,
2013-05-19 07:16:00,60.7,58.1,29.58,NNW,338,1.1,1.1,91,0.00,,,0.00,WUHU216HW,2013-05-19 11:16:00,
2013-05-19 07:21:00,60.7,58.1,29.59,NNW,338,0.2,1.1,91,0.00,,,0.00,WUHU216HW,2013-05-19 11:21:00,
2013-05-19 07:26:00,60.7,58.1,29.59,NNW,338,0.9,1.1,91,0.00,,,0.00,WUHU216HW,2013-05-19 11:26:00,
2013-05-19 07:31:00,60.5,57.9,29.59,NW,315,1.1,1.8,91,0.00,,,0.00,WUHU216HW,2013-05-19 11:31:00,
2013-05-19 07:36:00,60.5,57.9,29.59,North,0,1.1,1.8,91,0.00,,,0.00,WUHU216HW,2013-05-19 11:36:00,
2013-05-19 07:41:00,60.7,58.1,29.59,NNE,23,2.5,2.9,91,0.00,,,0.00,WUHU216HW,2013-05-19 11:41:00,
2013-05-19 07:46:00,60.7,58.1,29.59,North,0,0.9,2.9,91,0.00,,,0.00,WUHU216HW,2013-05-19 11:46:00,
2013-05-19 07:51:00,60.5,57.9,29.59,NE,45,4.0,4.0,91,0.00,,,0.00,WUHU216HW,2013-05-19 11:51:00,
2013-05-19 07:56:00,60.3,57.7,29.59,NNE,23,2.2,4.0,91,0.00,,,0.00,WUHU216HW,2013-05-19 11:56:00,
2013-05-19 08:01:00,60.3,58.0,29.59,North,0,0.7,4.0,92,0.00,,,0.00,WUHU216HW,2013-05-19 12:01:00,
2013-05-19 08:06:00,60.5,58.1,29.59,North,0,4.7,4.7,92,0.00,,,0.00,WUHU216HW,2013-05-19 12:06:00,
2013-05-19 08:11:00,60.7,58.1,29.59,NNE,23,7.6,7.6,91,0.00,,,0.00,WUHU216HW,2013-05-19 12:11:00,
2013-05-19 08:16:00,61.4,58.8,29.59,North,0,0.9,7.6,91,0.00,,,0.00,WUHU216HW,2013-05-19 12:16:00,
2013-05-19 08:21:00,61.7,58.9,29.59,NNW,338,0.9,7.6,90,0.00,,,0.00,WUHU216HW,2013-05-19 12:21:00,
2013-05-19 08:26:00,62.1,59.2,29.59,NNW,338,0.4,0.9,90,0.00,,,0.00,WUHU216HW,2013-05-19 12:26:00,
2013-05-19 08:31:00,62.6,59.4,29.59,North,0,1.6,1.6,89,0.00,,,0.00,WUHU216HW,2013-05-19 12:31:00,
2013-05-19 08:36:00,62.8,59.2,29.59,North,0,0.9,1.6,88,0.00,,,0.00,WUHU216HW,2013-05-19 12:36:00,
2013-05-19 08:41:00,62.8,59.0,29.60,NNW,338,1.1,1.6,87,0.00,,,0.00,WUHU216HW,2013-05-19 12:41:00,
2013-05-19 08:46:00,63.0,59.1,29.60,NE,45,2.2,6.3,87,0.00,,,0.00,WUHU216HW,2013-05-19 12:46:00,
2013-05-19 08:51:00,63.2,59.6,29.60,NE,45,2.7,6.3,88,0.00,,,0.00,WUHU216HW,2013-05-19 12:51:00,
2013-05-19 08:56:00,63.7,59.9,29.60,NNE,23,7.2,7.2,87,0.00,,,0.00,WUHU216HW,2013-05-19 12:56:00,
2013-05-19 09:01:00,64.3,60.0,29.60,NNW,338,2.0,7.2,86,0.00,,,0.00,WUHU216HW,2013-05-19 13:01:00,
2013-05-19 09:06:00,64.4,60.2,29.60,NNE,23,6.5,7.2,86,0.00,,,0.00,WUHU216HW,2013-05-19 13:06:00,
2013-05-19 09:11:00,65.0,60.7,29.60,NNW,338,2.5,6.5,86,0.00,,,0.00,WUHU216HW,2013-05-19 13:11:00,
2013-05-19 09:16:00,65.7,60.8,29.60,NNE,23,4.0,6.5,84,0.00,,,0.00,WUHU216HW,2013-05-19 13:16:00,
2013-05-19 09:21:00,65.9,61.2,29.60,NW,315,4.0,4.0,85,0.00,,,0.00,WUHU216HW,2013-05-19 13:21:00,
2013-05-19 09:26:00,65.7,61.0,29.60,North,0,1.3,4.0,85,0.00,,,0.00,WUHU216HW,2013-05-19 13:26:00,
2013-05-19 09:31:00,65.7,61.0,29.61,North,0,1.6,4.0,85,0.00,,,0.00,WUHU216HW,2013-05-19 13:31:00,
2013-05-19 09:36:00,65.2,60.6,29.61,NNW,338,1.6,4.5,85,0.00,,,0.00,WUHU216HW,2013-05-19 13:36:00,
2013-05-19 09:41:00,65.2,60.6,29.61,North,0,1.8,4.5,85,0.00,,,0.00,WUHU216HW,2013-05-19 13:41:00,
2013-05-19 09:46:00,65.2,60.2,29.61,NNE,23,3.4,3.4,84,0.00,,,0.00,WUHU216HW,2013-05-19 13:46:00,
2013-05-19 09:51:00,65.2,60.6,29.61,NNW,338,1.1,3.4,85,0.00,,,0.00,WUHU216HW,2013-05-19 13:51:00,
2013-05-19 09:56:00,65.2,60.6,29.61,NW,315,0.4,3.4,85,0.00,,,0.00,WUHU216HW,2013-05-19 13:56:00,
2013-05-19 10:01:00,65.3,60.8,29.60,NNE,23,6.5,6.5,85,0.00,,,0.00,WUHU216HW,2013-05-19 14:01:00,
2013-05-19 10:06:00,65.2,60.6,29.61,NNE,23,7.6,7.6,85,0.00,,,0.00,WUHU216HW,2013-05-19 14:06:00,
2013-05-19 10:11:00,65.0,60.4,29.61,NE,45,3.6,7.6,85,0.00,,,0.00,WUHU216HW,2013-05-19 14:11:00,
2013-05-19 10:16:00,65.0,60.7,29.61,NW,315,1.3,7.6,86,0.00,,,0.00,WUHU216HW,2013-05-19 14:16:00,
2013-05-19 10:21:00,65.0,60.7,29.61,NNE,23,4.5,4.9,86,0.00,,,0.00,WUHU216HW,2013-05-19 14:21:00,
2013-05-19 10:26:00,65.0,60.7,29.61,North,0,2.5,4.9,86,0.00,,,0.00,WUHU216HW,2013-05-19 14:26:00,
2013-05-19 10:31:00,65.0,60.4,29.61,North,0,0.4,4.5,85,0.00,,,0.00,WUHU216HW,2013-05-19 14:31:00,
2013-05-19 10:36:00,64.8,60.2,29.61,NNW,338,2.0,2.5,85,0.00,,,0.00,WUHU216HW,2013-05-19 14:36:00,
2013-05-19 10:41:00,64.6,60.0,29.61,NNW,338,1.3,2.0,85,0.00,,,0.00,WUHU216HW,2013-05-19 14:41:00,
2013-05-19 10:46:00,64.6,60.0,29.61,NNW,338,1.6,2.0,85,0.00,,,0.00,WUHU216HW,2013-05-19 14:46:00,
2013-05-19 10:51:00,64.8,60.2,29.61,North,0,1.1,1.6,85,0.00,,,0.00,WUHU216HW,2013-05-19 14:51:00,
2013-05-19 10:56:00,65.2,60.6,29.61,NNE,23,2.5,2.5,85,0.00,,,0.00,WUHU216HW,2013-05-19 14:56:00,
2013-05-19 11:01:00,65.2,60.8,29.61,North,0,2.5,2.5,86,0.00,,,0.00,WUHU216HW,2013-05-19 15:01:00,
2013-05-19 11:06:00,65.2,60.8,29.60,NNW,338,1.8,2.5,86,0.00,,,0.00,WUHU216HW,2013-05-19 15:06:00,
2013-05-19 11:11:00,65.3,61.0,29.61,NNW,338,0.2,2.5,86,0.00,,,0.00,WUHU216HW,2013-05-19 15:11:00,
2013-05-19 11:16:00,66.1,61.8,29.61,NW,315,1.6,1.8,86,0.00,,,0.00,WUHU216HW,2013-05-19 15:16:00,
2013-05-19 11:21:00,66.4,62.1,29.61,NW,315,1.8,1.8,86,0.00,,,0.00,WUHU216HW,2013-05-19 15:21:00,
2013-05-19 11:26:00,66.6,61.9,29.61,NW,315,0.9,1.8,85,0.00,,,0.00,WUHU216HW,2013-05-19 15:26:00,
2013-05-19 11:31:00,66.8,61.7,29.61,NW,315,0.4,1.8,84,0.00,,,0.00,WUHU216HW,2013-05-19 15:31:00,
2013-05-19 11:36:00,67.0,61.9,29.61,NW,315,0.4,0.9,84,0.00,,,0.00,WUHU216HW,2013-05-19 15:36:00,
2013-05-19 11:41:00,67.0,61.9,29.61,NW,315,0.9,0.9,84,0.00,,,0.00,WUHU216HW,2013-05-19 15:41:00,
2013-05-19 11:46:00,67.0,61.9,29.60,NNW,338,0.7,0.9,84,0.00,,,0.00,WUHU216HW,2013-05-19 15:46:00,
2013-05-19 11:51:00,67.0,61.9,29.60,WNW,293,0.9,1.1,84,0.00,,,0.00,WUHU216HW,2013-05-19 15:51:00,
2013-05-19 11:56:00,67.3,62.3,29.60,NW,315,0.4,1.1,84,0.00,,,0.00,WUHU216HW,2013-05-19 15:56:00,
2013-05-19 12:01:00,67.7,62.6,29.60,West,270,1.1,1.6,84,0.00,,,0.00,WUHU216HW,2013-05-19 16:01:00,
2013-05-19 12:06:00,68.0,63.0,29.60,SW,225,0.2,1.6,84,0.00,,,0.00,WUHU216HW,2013-05-19 16:06:00,
2013-05-19 12:11:00,68.0,63.0,29.60,SW,225,0.0,1.1,84,0.00,,,0.00,WUHU216HW,2013-05-19 16:11:00,
2013-05-19 12:16:00,68.8,63.4,29.59,ESE,113,0.4,0.4,83,0.00,,,0.00,WUHU216HW,2013-05-19 16:16:00,
2013-05-19 12:21:00,70.2,64.5,29.59,SW,225,0.9,0.9,82,0.00,,,0.00,WUHU216HW,2013-05-19 16:21:00,
2013-05-19 12:26:00,70.9,64.8,29.59,East,90,1.8,1.8,81,0.00,,,0.00,WUHU216HW,2013-05-19 16:26:00,
2013-05-19 12:31:00,71.6,65.2,29.59,SW,225,1.1,1.8,80,0.00,,,0.00,WUHU216HW,2013-05-19 16:31:00,
2013-05-19 12:36:00,72.4,65.2,29.59,South,180,1.6,1.8,78,0.00,,,0.00,WUHU216HW,2013-05-19 16:36:00,
2013-05-19 12:41:00,72.7,65.9,29.58,ESE,113,1.8,1.8,79,0.00,,,0.00,WUHU216HW,2013-05-19 16:41:00,
2013-05-19 12:46:00,72.7,65.5,29.58,SSW,203,1.6,1.8,78,0.00,,,0.00,WUHU216HW,2013-05-19 16:46:00,
2013-05-19 12:51:00,72.5,65.4,29.58,SE,135,1.1,1.8,78,0.00,,,0.00,WUHU216HW,2013-05-19 16:51:00,
2013-05-19 12:56:00,72.4,64.7,29.58,SE,135,1.1,1.6,77,0.00,,,0.00,WUHU216HW,2013-05-19 16:56:00,
2013-05-19 13:01:00,72.5,65.4,29.58,SW,225,0.7,1.1,78,0.00,,,0.00,WUHU216HW,2013-05-19 17:01:00,
2013-05-19 13:06:00,73.1,65.9,29.58,SE,135,0.0,1.1,78,0.00,,,0.00,WUHU216HW,2013-05-19 17:06:00,
2013-05-19 13:11:00,73.6,65.6,29.57,SE,135,1.1,1.8,76,0.00,,,0.00,WUHU216HW,2013-05-19 17:11:00,
2013-05-19 13:16:00,73.4,65.1,29.57,WSW,248,1.3,2.5,75,0.00,,,0.00,WUHU216HW,2013-05-19 17:16:00,
2013-05-19 13:21:00,73.1,65.1,29.57,SE,135,0.7,2.5,76,0.00,,,0.00,WUHU216HW,2013-05-19 17:21:00,
2013-05-19 13:26:00,73.4,65.4,29.57,SE,135,0.2,2.2,76,0.00,,,0.00,WUHU216HW,2013-05-19 17:26:00,
2013-05-19 13:31:00,73.6,65.6,29.57,SW,225,0.4,0.7,76,0.00,,,0.00,WUHU216HW,2013-05-19 17:31:00,
2013-05-19 13:36:00,73.8,65.8,29.57,SW,225,1.3,1.6,76,0.00,,,0.00,WUHU216HW,2013-05-19 17:36:00,
2013-05-19 13:41:00,74.0,66.0,29.57,SSE,158,1.8,3.4,76,0.00,,,0.00,WUHU216HW,2013-05-19 17:41:00,
2013-05-19 13:46:00,74.5,66.5,29.57,SW,225,1.6,3.4,76,0.00,,,0.00,WUHU216HW,2013-05-19 17:46:00,
2013-05-19 13:51:00,74.9,66.4,29.57,WSW,248,3.1,3.1,75,0.00,,,0.00,WUHU216HW,2013-05-19 17:51:00,
2013-05-19 13:56:00,75.2,66.8,29.57,SSW,203,1.8,3.1,75,0.00,,,0.00,WUHU216HW,2013-05-19 17:56:00,
2013-05-19 14:01:00,75.6,67.2,29.56,SSW,203,1.6,3.4,75,0.00,,,0.00,WUHU216HW,2013-05-19 18:01:00,
2013-05-19 14:06:00,76.5,67.6,29.56,NE,45,0.7,3.4,74,0.00,,,0.00,WUHU216HW,2013-05-19 18:06:00,
2013-05-19 14:11:00,76.7,67.0,29.56,East,90,1.8,2.9,72,0.00,,,0.00,WUHU216HW,2013-05-19 18:11:00,
2013-05-19 14:16:00,76.9,67.1,29.56,SSE,158,2.2,2.9,72,0.00,,,0.00,WUHU216HW,2013-05-19 18:16:00,
2013-05-19 14:21:00,76.9,66.8,29.56,SSW,203,0.9,2.2,71,0.00,,,0.00,WUHU216HW,2013-05-19 18:21:00,
2013-05-19 14:26:00,76.7,66.6,29.56,ESE,113,3.8,3.8,71,0.00,,,0.00,WUHU216HW,2013-05-19 18:26:00,
2013-05-19 14:31:00,76.3,66.2,29.56,East,90,0.4,3.8,71,0.00,,,0.00,WUHU216HW,2013-05-19 18:31:00,
2013-05-19 14:36:00,76.0,65.9,29.56,East,90,2.2,3.8,71,0.00,,,0.00,WUHU216HW,2013-05-19 18:36:00,
2013-05-19 14:41:00,75.6,66.0,29.55,West,270,1.1,2.2,72,0.00,,,0.00,WUHU216HW,2013-05-19 18:41:00,
2013-05-19 14:46:00,75.6,66.0,29.55,SW,225,1.6,2.2,72,0.00,,,0.00,WUHU216HW,2013-05-19 18:46:00,
2013-05-19 14:51:00,76.0,65.9,29.56,SE,135,4.0,4.0,71,0.00,,,0.00,WUHU216HW,2013-05-19 18:51:00,
2013-05-19 14:56:00,75.8,65.7,29.56,SW,225,1.3,4.0,71,0.00,,,0.00,WUHU216HW,2013-05-19 18:56:00,
2013-05-19 15:01:00,75.6,66.0,29.56,West,270,0.9,4.0,72,0.00,,,0.00,WUHU216HW,2013-05-19 19:01:00,
2013-05-19 15:06:00,75.2,65.6,29.56,SW,225,2.5,3.4,72,0.00,,,0.00,WUHU216HW,2013-05-19 19:06:00,
2013-05-19 15:11:00,74.9,65.3,29.55,South,180,1.3,3.4,72,0.00,,,0.00,WUHU216HW,2013-05-19 19:11:00,
2013-05-19 15:16:00,75.6,65.5,29.55,SW,225,2.5,2.5,71,0.00,,,0.00,WUHU216HW,2013-05-19 19:16:00,
2013-05-19 15:21:00,75.6,65.5,29.55,SSW,203,5.4,5.4,71,0.00,,,0.00,WUHU216HW,2013-05-19 19:21:00,
2013-05-19 15:26:00,75.4,65.3,29.55,SE,135,2.5,5.4,71,0.00,,,0.00,WUHU216HW,2013-05-19 19:26:00,
2013-05-19 15:31:00,75.2,65.2,29.54,SW,225,4.5,5.6,71,0.00,,,0.00,WUHU216HW,2013-05-19 19:31:00,
2013-05-19 15:36:00,75.1,65.1,29.54,SSE,158,3.8,5.6,71,0.00,,,0.00,WUHU216HW,2013-05-19 19:36:00,
2013-05-19 15:41:00,74.3,64.4,29.54,SSW,203,4.0,6.0,71,0.00,,,0.00,WUHU216HW,2013-05-19 19:41:00,
2013-05-19 15:46:00,74.3,64.8,29.54,WSW,248,2.2,6.0,72,0.00,,,0.00,WUHU216HW,2013-05-19 19:46:00,
2013-05-19 15:51:00,74.5,64.5,29.54,SW,225,4.5,5.4,71,0.00,,,0.00,WUHU216HW,2013-05-19 19:51:00,
2013-05-19 15:56:00,74.5,64.9,29.54,SW,225,6.0,6.0,72,0.00,,,0.00,WUHU216HW,2013-05-19 19:56:00,
2013-05-19 16:01:00,74.5,64.5,29.54,SSW,203,5.4,6.0,71,0.00,,,0.00,WUHU216HW,2013-05-19 20:01:00,
2013-05-19 16:06:00,74.5,64.5,29.54,SSE,158,2.2,6.0,71,0.00,,,0.00,WUHU216HW,2013-05-19 20:06:00,
2013-05-19 16:11:00,74.5,64.5,29.54,SW,225,3.4,5.4,71,0.00,,,0.00,WUHU216HW,2013-05-19 20:11:00,
2013-05-19 16:16:00,75.1,65.1,29.54,SW,225,4.9,5.4,71,0.00,,,0.00,WUHU216HW,2013-05-19 20:16:00,
2013-05-19 16:21:00,74.9,64.9,29.54,SSE,158,2.5,5.4,71,0.00,,,0.00,WUHU216HW,2013-05-19 20:21:00,
2013-05-19 16:26:00,74.5,64.5,29.54,SSW,203,3.4,4.9,71,0.00,,,0.00,WUHU216HW,2013-05-19 20:26:00,
2013-05-19 16:31:00,74.2,64.2,29.54,SSW,203,2.5,3.4,71,0.00,,,0.00,WUHU216HW,2013-05-19 20:31:00,
2013-05-19 16:36:00,74.2,64.6,29.54,SW,225,4.0,4.0,72,0.00,,,0.00,WUHU216HW,2013-05-19 20:36:00,
2013-05-19 16:41:00,74.3,64.4,29.54,SSW,203,4.7,4.7,71,0.00,,,0.00,WUHU216HW,2013-05-19 20:41:00,
2013-05-19 16:46:00,74.2,64.6,29.54,ESE,113,2.5,4.7,72,0.00,,,0.00,WUHU216HW,2013-05-19 20:46:00,
2013-05-19 16:51:00,74.2,64.6,29.53,SSE,158,1.6,4.7,72,0.00,,,0.00,WUHU216HW,2013-05-19 20:51:00,
2013-05-19 16:56:00,74.2,64.6,29.53,SSW,203,1.8,2.7,72,0.00,,,0.00,WUHU216HW,2013-05-19 20:56:00,
2013-05-19 17:01:00,74.2,64.6,29.53,SSW,203,1.8,2.7,72,0.00,,,0.00,WUHU216HW,2013-05-19 21:01:00,
2013-05-19 17:06:00,74.3,64.8,29.53,SW,225,2.7,2.7,72,0.00,,,0.00,WUHU216HW,2013-05-19 21:06:00,
2013-05-19 17:11:00,74.5,64.9,29.54,ESE,113,2.0,2.7,72,0.00,,,0.00,WUHU216HW,2013-05-19 21:11:00,
2013-05-19 17:16:00,74.3,64.8,29.53,SW,225,4.0,4.0,72,0.00,,,0.00,WUHU216HW,2013-05-19 21:16:00,
2013-05-19 17:21:00,74.2,64.6,29.53,SE,135,1.8,4.0,72,0.00,,,0.00,WUHU216HW,2013-05-19 21:21:00,
2013-05-19 17:26:00,74.0,64.5,29.53,SW,225,4.3,4.3,72,0.00,,,0.00,WUHU216HW,2013-05-19 21:26:00,
2013-05-19 17:31:00,73.8,64.3,29.53,South,180,3.6,4.3,72,0.00,,,0.00,WUHU216HW,2013-05-19 21:31:00,
2013-05-19 17:36:00,73.4,63.9,29.53,SSW,203,3.6,4.3,72,0.00,,,0.00,WUHU216HW,2013-05-19 21:36:00,
2013-05-19 17:41:00,72.9,63.8,29.53,ESE,113,2.7,3.6,73,0.00,,,0.00,WUHU216HW,2013-05-19 21:41:00,
2013-05-19 17:46:00,72.4,63.3,29.53,WSW,248,2.5,4.7,73,0.00,,,0.00,WUHU216HW,2013-05-19 21:46:00,
2013-05-19 17:51:00,72.2,63.5,29.53,SSW,203,3.6,4.7,74,0.00,,,0.00,WUHU216HW,2013-05-19 21:51:00,
2013-05-19 17:56:00,71.8,63.1,29.53,South,180,2.5,3.6,74,0.00,,,0.00,WUHU216HW,2013-05-19 21:56:00,
2013-05-19 18:01:00,71.6,62.9,29.53,SSW,203,3.4,3.6,74,0.00,,,0.00,WUHU216HW,2013-05-19 22:01:00,
2013-05-19 18:06:00,71.5,62.7,29.53,SW,225,2.7,5.4,74,0.00,,,0.00,WUHU216HW,2013-05-19 22:06:00,
2013-05-19 18:11:00,71.5,62.7,29.52,SW,225,1.6,5.4,74,0.00,,,0.00,WUHU216HW,2013-05-19 22:11:00,
2013-05-19 18:16:00,71.5,63.1,29.52,SW,225,3.1,3.6,75,0.00,,,0.00,WUHU216HW,2013-05-19 22:16:00,
2013-05-19 18:21:00,71.6,63.3,29.52,SSE,158,2.9,3.1,75,0.00,,,0.00,WUHU216HW,2013-05-19 22:21:00,
2013-05-19 18:26:00,71.6,63.3,29.51,SW,225,2.2,3.1,75,0.00,,,0.00,WUHU216HW,2013-05-19 22:26:00,
2013-05-19 18:31:00,71.5,63.1,29.51,SSE,158,2.0,2.9,75,0.00,,,0.00,WUHU216HW,2013-05-19 22:31:00,
2013-05-19 18:36:00,71.3,62.9,29.51,SSE,158,2.5,2.5,75,0.00,,,0.00,WUHU216HW,2013-05-19 22:36:00,
2013-05-19 18:41:00,70.9,62.6,29.51,SSE,158,2.5,2.9,75,0.00,,,0.00,WUHU216HW,2013-05-19 22:41:00,
2013-05-19 18:46:00,70.9,62.9,29.51,SW,225,5.1,5.1,76,0.00,,,0.00,WUHU216HW,2013-05-19 22:46:00,
2013-05-19 18:51:00,70.7,62.7,29.51,SE,135,1.3,5.1,76,0.00,,,0.00,WUHU216HW,2013-05-19 22:51:00,
2013-05-19 18:56:00,70.7,62.7,29.51,South,180,6.3,6.3,76,0.00,,,0.00,WUHU216HW,2013-05-19 22:56:00,
2013-05-19 19:01:00,70.7,62.7,29.51,SW,225,3.4,6.3,76,0.00,,,0.00,WUHU216HW,2013-05-19 23:01:00,
2013-05-19 19:06:00,70.7,63.1,29.51,SW,225,1.6,6.3,77,0.00,,,0.00,WUHU216HW,2013-05-19 23:06:00,
2013-05-19 19:11:00,70.6,62.9,29.51,SSW,203,2.7,4.0,77,0.00,,,0.00,WUHU216HW,2013-05-19 23:11:00,
2013-05-19 19:16:00,70.4,62.7,29.51,SW,225,3.1,5.4,77,0.00,,,0.00,WUHU216HW,2013-05-19 23:16:00,
2013-05-19 19:21:00,70.2,62.6,29.51,SSW,203,3.4,5.4,77,0.00,,,0.00,WUHU216HW,2013-05-19 23:21:00,
2013-05-19 19:26:00,70.2,62.6,29.51,SW,225,3.6,5.4,77,0.00,,,0.00,WUHU216HW,2013-05-19 23:26:00,
2013-05-19 19:31:00,70.0,62.4,29.51,SSW,203,2.0,3.6,77,0.00,,,0.00,WUHU216HW,2013-05-19 23:31:00,
2013-05-19 19:36:00,70.0,62.8,29.52,SSE,158,1.8,3.6,78,0.00,,,0.00,WUHU216HW,2013-05-19 23:36:00,
2013-05-19 19:41:00,69.8,62.7,29.52,SW,225,2.0,3.4,78,0.00,,,0.00,WUHU216HW,2013-05-19 23:41:00,
2013-05-19 19:46:00,69.7,62.5,29.52,SSE,158,1.1,3.4,78,0.00,,,0.00,WUHU216HW,2013-05-19 23:46:00,
2013-05-19 19:51:00,69.5,62.3,29.52,SSW,203,0.7,3.1,78,0.00,,,0.00,WUHU216HW,2013-05-19 23:51:00,
2013-05-19 19:56:00,69.5,62.3,29.51,SSW,203,0.4,1.3,78,0.00,,,0.00,WUHU216HW,2013-05-19 23:56:00,
2013-05-19 20:01:00,69.5,62.6,29.51,SW,225,0.7,0.7,79,0.00,,,0.00,WUHU216HW,2013-05-20 00:01:00,
2013-05-19 20:06:00,69.1,62.4,29.52,SW,225,0.4,0.7,79,0.00,,,0.00,WUHU216HW,2013-05-20 00:06:00,
2013-05-19 20:11:00,68.9,62.6,29.52,SW,225,0.4,0.7,80,0.00,,,0.00,WUHU216HW,2013-05-20 00:11:00,
2013-05-19 20:16:00,68.8,62.4,29.52,SW,225,0.4,0.7,80,0.00,,,0.00,WUHU216HW,2013-05-20 00:16:00,
2013-05-19 20:21:00,68.6,62.2,29.53,ESE,113,0.4,0.7,80,0.00,,,0.00,WUHU216HW,2013-05-20 00:21:00,
2013-05-19 20:26:00,68.4,62.1,29.53,South,180,0.2,0.4,80,0.00,,,0.00,WUHU216HW,2013-05-20 00:26:00,
2013-05-19 20:31:00,68.2,61.9,29.53,SE,135,0.2,0.4,80,0.00,,,0.00,WUHU216HW,2013-05-20 00:31:00,
2013-05-19 20:36:00,68.0,61.7,29.53,ESE,113,0.0,0.9,80,0.00,,,0.00,WUHU216HW,2013-05-20 00:36:00,
2013-05-19 20:41:00,68.0,61.7,29.53,SE,135,0.7,0.9,80,0.00,,,0.00,WUHU216HW,2013-05-20 00:41:00,
2013-05-19 20:46:00,67.9,61.9,29.52,SE,135,0.0,0.7,81,0.00,,,0.00,WUHU216HW,2013-05-20 00:46:00,
2013-05-19 20:51:00,67.7,61.8,29.52,ESE,113,0.7,0.7,81,0.00,,,0.00,WUHU216HW,2013-05-20 00:51:00,
2013-05-19 20:56:00,67.5,61.6,29.53,East,90,0.7,0.7,81,0.00,,,0.00,WUHU216HW,2013-05-20 00:56:00,
2013-05-19 21:01:00,67.3,61.7,29.53,SE,135,0.2,0.7,82,0.00,,,0.00,WUHU216HW,2013-05-20 01:01:00,
2013-05-19 21:06:00,67.3,61.7,29.53,WSW,248,0.0,0.7,82,0.00,,,0.00,WUHU216HW,2013-05-20 01:06:00,
2013-05-19 21:11:00,67.3,61.7,29.52,West,270,1.6,1.6,82,0.00,,,0.00,WUHU216HW,2013-05-20 01:11:00,
2013-05-19 21:16:00,67.1,61.8,29.52,SW,225,0.9,1.6,83,0.00,,,0.00,WUHU216HW,2013-05-20 01:16:00,
2013-05-19 21:21:00,67.0,61.7,29.53,WSW,248,1.1,1.6,83,0.00,,,0.00,WUHU216HW,2013-05-20 01:21:00,
2013-05-19 21:26:00,67.0,61.7,29.53,WSW,248,0.0,1.1,83,0.00,,,0.00,WUHU216HW,2013-05-20 01:26:00,
2013-05-19 21:31:00,67.0,61.7,29.53,ENE,68,1.1,1.1,83,0.00,,,0.00,WUHU216HW,2013-05-20 01:31:00,
2013-05-19 21:36:00,67.0,61.9,29.53,ENE,68,1.1,1.3,84,0.00,,,0.00,WUHU216HW,2013-05-20 01:36:00,
2013-05-19 21:41:00,66.8,61.7,29.53,ENE,68,0.4,1.3,84,0.00,,,0.00,WUHU216HW,2013-05-20 01:41:00,
2013-05-19 21:46:00,66.8,61.7,29.53,ENE,68,0.0,1.3,84,0.00,,,0.00,WUHU216HW,2013-05-20 01:46:00,
2013-05-19 21:51:00,66.6,61.6,29.54,ENE,68,0.0,0.4,84,0.00,,,0.00,WUHU216HW,2013-05-20 01:51:00,
2013-05-19 21:56:00,66.6,61.6,29.54,NW,315,0.0,0.4,84,0.00,,,0.00,WUHU216HW,2013-05-20 01:56:00,
2013-05-19 22:01:00,66.4,61.4,29.54,ENE,68,1.1,1.1,84,0.00,,,0.00,WUHU216HW,2013-05-20 02:01:00,
2013-05-19 22:06:00,66.2,61.9,29.54,ESE,113,1.8,1.8,86,0.00,,,0.00,WUHU216HW,2013-05-20 02:06:00,
2013-05-19 22:11:00,66.2,61.6,29.54,East,90,0.7,1.8,85,0.00,,,0.00,WUHU216HW,2013-05-20 02:11:00,
2013-05-19 22:16:00,66.2,61.9,29.54,ENE,68,0.7,1.8,86,0.00,,,0.00,WUHU216HW,2013-05-20 02:16:00,
2013-05-19 22:21:00,66.2,61.6,29.55,ESE,113,0.4,1.1,85,0.00,,,0.00,WUHU216HW,2013-05-20 02:21:00,
2013-05-19 22:26:00,66.2,61.6,29.55,ESE,113,0.0,0.7,85,0.00,,,0.00,WUHU216HW,2013-05-20 02:26:00,
2013-05-19 22:31:00,66.2,61.6,29.55,ESE,113,0.0,0.4,85,0.00,,,0.00,WUHU216HW,2013-05-20 02:31:00,
2013-05-19 22:36:00,66.2,61.6,29.55,SW,225,0.9,0.9,85,0.00,,,0.00,WUHU216HW,2013-05-20 02:36:00,
2013-05-19 22:41:00,66.1,61.8,29.55,SW,225,0.0,0.9,86,0.00,,,0.00,WUHU216HW,2013-05-20 02:41:00,
2013-05-19 22:46:00,66.1,61.8,29.55,SW,225,1.1,1.1,86,0.00,,,0.00,WUHU216HW,2013-05-20 02:46:00,
2013-05-19 22:51:00,66.1,61.8,29.55,SW,225,0.4,1.1,86,0.00,,,0.00,WUHU216HW,2013-05-20 02:51:00,
2013-05-19 22:56:00,65.9,61.6,29.55,SW,225,0.4,1.1,86,0.00,,,0.00,WUHU216HW,2013-05-20 02:56:00,
2013-05-19 23:01:00,66.1,62.0,29.55,WSW,248,0.9,0.9,87,0.00,,,0.00,WUHU216HW,2013-05-20 03:01:00,
2013-05-19 23:06:00,65.9,61.8,29.55,ESE,113,1.1,1.6,87,0.00,,,0.00,WUHU216HW,2013-05-20 03:06:00,
2013-05-19 23:11:00,65.9,61.8,29.55,ESE,113,0.4,1.6,87,0.00,,,0.00,WUHU216HW,2013-05-20 03:11:00,
2013-05-19 23:16:00,65.9,61.8,29.54,WSW,248,0.2,1.1,87,0.00,,,0.00,WUHU216HW,2013-05-20 03:16:00,
2013-05-19 23:21:00,65.9,61.8,29.54,SW,225,0.0,0.4,87,0.00,,,0.00,WUHU216HW,2013-05-20 03:21:00,
2013-05-19 23:26:00,65.9,61.8,29.54,SW,225,0.7,0.7,87,0.00,,,0.00,WUHU216HW,2013-05-20 03:26:00,
2013-05-19 23:31:00,65.9,61.8,29.54,SW,225,0.4,0.7,87,0.00,,,0.00,WUHU216HW,2013-05-20 03:31:00,
2013-05-19 23:36:00,65.9,61.8,29.54,SW,225,0.0,0.7,87,0.00,,,0.00,WUHU216HW,2013-05-20 03:36:00,
2013-05-19 23:41:00,65.9,61.8,29.54,SW,225,0.4,0.4,87,0.00,,,0.00,WUHU216HW,2013-05-20 03:41:00,
2013-05-19 23:46:00,65.9,61.8,29.54,SW,225,0.0,0.4,87,0.00,,,0.00,WUHU216HW,2013-05-20 03:46:00,
2013-05-19 23:51:00,65.9,61.8,29.54,SSW,203,0.0,0.4,87,0.00,,,0.00,WUHU216HW,2013-05-20 03:51:00,
2013-05-19 23:56:00,65.9,61.8,29.54,WSW,248,1.1,1.1,87,0.00,,,0.00,WUHU216HW,2013-05-20 03:56:00,